Date,TemperatureHighF,TemperatureAvgF,TemperatureLowF,DewpointHighF,DewpointAvgF,DewpointLowF,HumidityHigh,HumidityAvg,HumidityLow,PressureMaxIn,PressureMinIn,WindSpeedMaxMPH,WindSpeedAvgMPH,GustSpeedMaxMPH,PrecipitationSumIn
2013-3-1,32.0,22.6,3.0,14.0,11.5,-2.0,84,63,42,0.00,40.00,9,5,18,0.00
2013-3-2,34.0,13.4,-10.0,11.0,0.1,-17.0,80,59,27,0.00,40.00,4,1,9,0.00
2013-3-3,38.0,18.6,-1.0,7.0,-1.3,-7.0,83,49,15,0.00,40.00,7,2,14,0.00
2013-3-4,33.0,24.6,18.0,22.0,9.8,3.0,87,55,28,0.00,40.00,8,5,21,0.00
2013-3-5,29.0,24.4,16.0,24.0,20.6,14.0,92,85,77,0.00,40.00,8,4,17,0.00
2013-3-6,31.0,16.9,-1.0,18.0,8.2,-6.0,89,70,45,0.00,40.00,10,3,18,0.14
2013-3-7,38.0,16.2,-9.0,15.0,3.6,-16.0,82,61,37,0.00,40.00,6,2,12,0.06
2013-3-8,42.0,24.9,7.0,25.0,16.0,3.0,85,71,49,0.00,40.00,7,2,13,0.01
2013-3-9,36.0,33.0,29.0,35.0,31.0,24.0,98,92,74,0.00,40.00,4,2,10,0.40
2013-3-10,34.0,32.3,29.0,34.0,26.6,21.0,98,80,71,0.00,40.00,9,7,20,0.10
2013-3-11,32.0,27.5,25.0,23.0,19.9,16.0,85,73,56,0.00,40.00,8,6,19,0.00
2013-3-12,31.0,23.7,17.0,19.0,12.3,7.0,88,64,36,0.00,40.00,12,6,25,0.01
2013-3-13,36.0,22.7,6.0,12.0,5.9,2.0,84,52,25,0.00,40.00,7,3,15,0.01
2013-3-14,45.0,27.3,17.0,27.0,19.4,11.0,92,73,48,0.00,40.00,6,2,12,0.01
2013-3-15,34.0,27.9,20.0,29.0,20.6,12.0,94,76,47,0.00,40.00,8,4,16,0.04
2013-3-16,26.0,19.5,11.0,16.0,7.6,-4.0,86,62,38,0.00,40.00,9,6,20,0.09
2013-3-17,29.0,14.3,-9.0,7.0,-3.6,-15.0,73,47,26,0.00,40.00,8,5,20,0.01
2013-3-18,27.0,22.1,15.0,24.0,14.7,5.0,90,74,52,0.00,40.00,12,8,23,0.00
2013-3-19,29.0,17.3,8.0,5.0,-1.8,-11.0,69,46,24,0.00,40.00,12,9,27,0.07
2013-3-20,24.0,12.8,3.0,1.0,-4.6,-9.0,68,46,33,0.00,40.00,10,6,21,0.01
2013-3-21,33.0,12.5,-10.0,7.0,-1.4,-17.0,77,57,32,0.00,40.00,5,2,13,0.02
2013-3-22,42.0,20.2,-4.0,10.0,3.3,-10.0,82,54,23,0.00,40.00,6,1,11,0.01
2013-3-23,46.0,30.9,15.0,20.0,16.1,9.0,86,57,32,0.00,40.00,7,2,12,0.00
2013-3-24,34.0,29.7,25.0,21.0,18.5,16.0,72,63,53,0.00,40.00,9,5,21,0.00
2013-3-25,41.0,29.9,18.0,19.0,14.7,11.0,75,55,35,0.00,40.00,10,5,20,0.00
2013-3-26,42.0,35.0,30.0,23.0,18.0,15.0,76,51,34,0.00,40.00,6,3,13,0.00
2013-3-27,49.0,36.0,28.0,25.0,20.5,12.0,87,61,23,0.00,40.00,4,1,10,0.00
2013-3-28,50.0,41.8,27.0,21.0,16.5,14.0,72,39,24,0.00,40.00,4,2,10,0.00
2013-3-29,52.0,36.1,20.0,29.0,23.3,17.0,92,63,36,0.00,40.00,9,3,19,0.00
2013-3-30,54.0,42.0,31.0,40.0,33.9,-99.9,96,79,47,0.00,40.00,9,3,18,0.55
2013-3-31,37.0,33.9,26.0,30.0,19.4,8.0,93,59,32,0.00,40.00,15,8,28,0.19